createdAt,value
2022-12-12T00:00:06.960Z,15.75
2022-12-12T00:00:46.878Z,15.38
2022-12-12T00:01:30.910Z,15.00
2022-12-12T00:02:02.727Z,15.18
2022-12-12T00:02:34.861Z,15.70
2022-12-12T00:03:06.887Z,16.08
2022-12-12T00:03:38.904Z,15.63
2022-12-12T00:04:11.025Z,15.60
2022-12-12T00:04:42.871Z,15.65
2022-12-12T00:05:16.660Z,16.23
2022-12-12T00:05:49.194Z,14.25
2022-12-12T00:06:22.812Z,14.32
2022-12-12T00:06:54.639Z,17.02
2022-12-12T00:07:26.480Z,15.68
2022-12-12T00:07:58.388Z,15.02
2022-12-12T00:08:30.485Z,14.98
2022-12-12T00:09:03.903Z,14.35
2022-12-12T00:09:35.755Z,15.00
2022-12-12T00:10:08.526Z,14.27
2022-12-12T00:10:40.390Z,13.70
2022-12-12T00:11:12.689Z,15.25
2022-12-12T00:11:44.826Z,16.83
2022-12-12T00:12:16.667Z,13.95
2022-12-12T00:12:48.523Z,16.17
2022-12-12T00:13:20.367Z,13.40
2022-12-12T00:13:53.000Z,15.43
2022-12-12T00:14:24.888Z,16.90
2022-12-12T00:14:56.718Z,15.65
2022-12-12T00:15:28.754Z,13.62
2022-12-12T00:16:00.815Z,14.07
2022-12-12T00:16:32.783Z,15.00
2022-12-12T00:17:05.110Z,15.02
2022-12-12T00:17:37.046Z,16.25
2022-12-12T00:18:08.860Z,13.88
2022-12-12T00:18:41.248Z,14.30
2022-12-12T00:19:13.253Z,15.13
2022-12-12T00:19:45.130Z,15.60
2022-12-12T00:20:17.032Z,12.57
2022-12-12T00:20:57.170Z,14.85
2022-12-12T00:21:30.038Z,14.23
2022-12-12T00:22:01.902Z,13.02
2022-12-12T00:22:34.054Z,13.82
2022-12-12T00:23:05.936Z,14.68
2022-12-12T00:23:37.777Z,15.93
2022-12-12T00:24:09.624Z,15.50
2022-12-12T00:24:41.443Z,16.40
2022-12-12T00:25:13.703Z,16.48
2022-12-12T00:25:45.738Z,14.65
2022-12-12T00:26:26.969Z,14.75
2022-12-12T00:26:58.847Z,14.30
2022-12-12T00:27:34.482Z,13.77
2022-12-12T00:28:06.651Z,13.70
2022-12-12T00:28:38.824Z,14.70
2022-12-12T00:29:11.243Z,13.35
2022-12-12T00:29:43.083Z,17.90
2022-12-12T00:30:14.887Z,15.18
2022-12-12T00:30:46.814Z,15.95
2022-12-12T00:31:19.027Z,14.63
2022-12-12T00:31:50.921Z,14.68
2022-12-12T00:32:22.775Z,14.65
2022-12-12T00:32:54.608Z,14.05
2022-12-12T00:33:26.763Z,15.82
2022-12-12T00:33:58.652Z,11.68
2022-12-12T00:34:30.566Z,14.35
2022-12-12T00:35:02.414Z,14.98
2022-12-12T00:35:34.358Z,13.25
2022-12-12T00:36:06.990Z,16.73
2022-12-12T00:36:38.850Z,13.10
2022-12-12T00:37:10.706Z,14.55
2022-12-12T00:37:42.567Z,14.43
2022-12-12T00:38:14.397Z,16.85
2022-12-12T00:38:47.078Z,14.10
2022-12-12T00:39:19.493Z,14.52
2022-12-12T00:39:51.344Z,14.55
2022-12-12T00:40:23.239Z,15.90
2022-12-12T00:40:57.406Z,14.55
2022-12-12T00:41:29.445Z,15.48
2022-12-12T00:42:01.355Z,14.57
2022-12-12T00:42:33.320Z,16.37
2022-12-12T00:43:05.219Z,13.90
2022-12-12T00:43:37.154Z,14.87
2022-12-12T00:44:09.524Z,13.40
2022-12-12T00:44:41.446Z,14.30
2022-12-12T00:45:13.387Z,15.10
2022-12-12T00:45:45.376Z,13.18
2022-12-12T00:46:20.914Z,15.27
2022-12-12T00:46:52.873Z,17.02
2022-12-12T00:47:24.705Z,15.85
2022-12-12T00:47:56.545Z,16.27
2022-12-12T00:48:30.500Z,14.57
2022-12-12T00:49:02.486Z,15.88
2022-12-12T00:49:34.862Z,16.48
2022-12-12T00:50:07.350Z,14.13
2022-12-12T00:50:39.243Z,16.45
2022-12-12T00:51:16.702Z,14.57
2022-12-12T00:51:48.520Z,13.68
2022-12-12T00:52:20.359Z,12.98
2022-12-12T00:52:52.176Z,13.60
2022-12-12T00:53:24.740Z,13.13
2022-12-12T00:53:58.314Z,13.70
2022-12-12T00:54:30.130Z,14.10
2022-12-12T00:55:02.273Z,14.25
2022-12-12T00:55:34.126Z,14.27
2022-12-12T00:56:06.688Z,15.77
2022-12-12T00:56:40.280Z,12.95
2022-12-12T00:57:12.172Z,15.18
2022-12-12T00:57:43.946Z,14.45
2022-12-12T00:58:15.758Z,14.07
2022-12-12T00:58:47.725Z,16.02
2022-12-12T00:59:19.836Z,20.23
2022-12-12T00:59:51.732Z,17.12
2022-12-12T01:00:24.048Z,18.45
2022-12-12T01:00:55.923Z,14.00
2022-12-12T01:01:30.190Z,14.35
2022-12-12T01:02:02.124Z,15.13
2022-12-12T01:02:34.085Z,14.82
2022-12-12T01:03:06.049Z,15.90
2022-12-12T01:03:39.580Z,16.62
2022-12-12T01:04:11.482Z,14.48
2022-12-12T01:04:43.301Z,14.32
2022-12-12T01:05:16.067Z,15.05
2022-12-12T01:05:48.564Z,14.40
2022-12-12T01:06:20.886Z,15.65
2022-12-12T01:06:52.711Z,16.17
2022-12-12T01:07:24.578Z,13.40
2022-12-12T01:07:56.495Z,15.07
2022-12-12T01:08:29.107Z,16.23
2022-12-12T01:09:02.024Z,13.32
2022-12-12T01:09:34.300Z,14.90
2022-12-12T01:10:09.986Z,16.00
2022-12-12T01:10:41.875Z,12.80
2022-12-12T01:11:15.984Z,15.07
2022-12-12T01:11:47.818Z,14.85
2022-12-12T01:12:19.676Z,15.10
2022-12-12T01:12:51.507Z,14.55
2022-12-12T01:13:23.715Z,15.82
2022-12-12T01:13:56.188Z,12.98
2022-12-12T01:14:28.080Z,22.48
2022-12-12T01:15:00.391Z,22.37
2022-12-12T01:15:32.742Z,19.87
2022-12-12T01:16:06.611Z,16.62
2022-12-12T01:16:38.784Z,19.48
2022-12-12T01:17:10.598Z,18.15
2022-12-12T01:17:42.452Z,16.25
2022-12-12T01:18:14.775Z,18.40
2022-12-12T01:18:46.579Z,16.90
2022-12-12T01:19:18.414Z,16.90
2022-12-12T01:19:50.225Z,17.98
2022-12-12T01:20:25.215Z,15.63
2022-12-12T01:20:57.071Z,14.95
2022-12-12T01:21:29.105Z,16.92
2022-12-12T01:22:01.247Z,14.15
2022-12-12T01:22:33.220Z,12.98
2022-12-12T01:23:05.037Z,13.50
2022-12-12T01:23:37.305Z,12.63
2022-12-12T01:24:09.208Z,12.68
2022-12-12T01:24:41.031Z,15.32
2022-12-12T01:25:15.687Z,16.62
2022-12-12T01:25:47.545Z,14.63
2022-12-12T01:26:23.468Z,14.05
2022-12-12T01:26:55.710Z,16.25
2022-12-12T01:27:28.046Z,12.25
2022-12-12T01:28:00.299Z,17.33
2022-12-12T01:28:32.315Z,12.88
2022-12-12T01:29:04.230Z,14.23
2022-12-12T01:29:36.448Z,15.90
2022-12-12T01:30:12.958Z,12.98
2022-12-12T01:30:44.887Z,14.77
2022-12-12T01:31:16.914Z,13.27
2022-12-12T01:31:48.818Z,13.07
2022-12-12T01:32:20.643Z,14.75
2022-12-12T01:32:52.845Z,15.50
2022-12-12T01:33:24.672Z,12.68
2022-12-12T01:33:56.523Z,10.95
2022-12-12T01:34:28.477Z,14.87
2022-12-12T01:35:00.369Z,14.90
2022-12-12T01:35:33.621Z,14.32
2022-12-12T01:36:06.134Z,13.32
2022-12-12T01:36:38.197Z,12.23
2022-12-12T01:37:10.061Z,13.43
2022-12-12T01:37:42.392Z,13.55
2022-12-12T01:38:14.509Z,14.13
2022-12-12T01:38:47.872Z,13.62
2022-12-12T01:39:19.733Z,13.88
2022-12-12T01:39:51.972Z,15.00
2022-12-12T01:40:27.256Z,15.52
2022-12-12T01:40:59.113Z,14.90
2022-12-12T01:41:30.998Z,16.23
2022-12-12T01:42:02.826Z,15.07
2022-12-12T01:42:34.971Z,13.98
2022-12-12T01:43:12.667Z,13.23
2022-12-12T01:43:46.199Z,14.55
2022-12-12T01:44:43.282Z,13.52
2022-12-12T01:45:53.658Z,14.43
2022-12-12T01:46:33.295Z,15.02
2022-12-12T01:47:06.098Z,15.82
2022-12-12T01:47:37.943Z,12.63
2022-12-12T01:48:09.790Z,14.90
2022-12-12T01:48:53.682Z,13.43
2022-12-12T01:49:27.376Z,12.52
2022-12-12T01:50:02.665Z,15.32
2022-12-12T01:50:34.477Z,15.18
2022-12-12T01:51:11.611Z,14.15
2022-12-12T01:51:45.175Z,16.62
2022-12-12T01:52:21.469Z,14.55
2022-12-12T01:52:53.446Z,14.13
2022-12-12T01:53:27.597Z,13.85
2022-12-12T01:54:10.302Z,14.20
2022-12-12T01:54:46.978Z,14.63
2022-12-12T01:55:23.108Z,16.62
2022-12-12T01:55:56.672Z,14.52
2022-12-12T01:56:28.974Z,15.43
2022-12-12T01:57:05.113Z,15.23
2022-12-12T01:57:43.116Z,13.55
2022-12-12T01:58:16.291Z,12.77
2022-12-12T01:58:51.334Z,15.68
2022-12-12T01:59:25.732Z,13.95
2022-12-12T02:00:00.180Z,15.65
2022-12-12T02:00:32.447Z,12.95
2022-12-12T02:01:04.773Z,14.63
2022-12-12T02:01:37.752Z,12.70
2022-12-12T02:02:10.035Z,12.63
2022-12-12T02:02:46.099Z,13.35
2022-12-12T02:03:18.090Z,12.10
2022-12-12T02:03:50.124Z,13.45
2022-12-12T02:04:23.189Z,12.35
2022-12-12T02:04:55.533Z,15.63
2022-12-12T02:05:42.057Z,15.13
2022-12-12T02:06:18.550Z,12.23
2022-12-12T02:06:52.116Z,13.62
2022-12-12T02:07:23.938Z,12.52
2022-12-12T02:07:57.248Z,14.82
2022-12-12T02:08:30.344Z,13.38
2022-12-12T02:09:07.963Z,13.38
2022-12-12T02:09:40.614Z,15.00
2022-12-12T02:10:12.963Z,13.57
2022-12-12T02:10:45.451Z,14.10
2022-12-12T02:11:17.624Z,12.85
2022-12-12T02:11:53.132Z,14.82
2022-12-12T02:12:25.048Z,14.15
2022-12-12T02:13:06.568Z,13.68
2022-12-12T02:13:38.710Z,13.40
2022-12-12T02:14:10.853Z,13.90
2022-12-12T02:14:48.189Z,13.05
2022-12-12T02:15:20.135Z,12.65
2022-12-12T02:16:10.156Z,14.32
2022-12-12T02:17:09.229Z,15.15
2022-12-12T02:17:41.030Z,12.05
2022-12-12T02:18:18.939Z,12.88
2022-12-12T02:19:19.909Z,12.85
2022-12-12T02:19:54.638Z,12.73
2022-12-12T02:20:48.416Z,11.35
2022-12-12T02:21:42.095Z,12.48
2022-12-12T02:22:32.606Z,11.25
2022-12-12T02:23:07.170Z,19.40
2022-12-12T02:23:48.228Z,15.52
2022-12-12T02:24:29.046Z,15.38
2022-12-12T02:26:08.053Z,12.80
2022-12-12T02:26:51.626Z,14.07
2022-12-12T02:27:43.572Z,16.50
2022-12-12T02:28:43.173Z,11.77
2022-12-12T02:29:17.661Z,13.10
2022-12-12T02:30:04.291Z,14.65
2022-12-12T02:31:13.612Z,13.80
2022-12-12T02:32:08.246Z,13.10
2022-12-12T02:33:02.270Z,12.37
2022-12-12T02:33:39.837Z,13.52
2022-12-12T02:34:45.367Z,11.98
2022-12-12T02:35:42.012Z,11.52
2022-12-12T02:36:27.243Z,13.18
2022-12-12T02:37:21.021Z,10.98
2022-12-12T02:38:07.962Z,12.32
2022-12-12T02:38:40.027Z,15.40
2022-12-12T02:39:47.311Z,11.68
2022-12-12T02:40:21.962Z,14.35
2022-12-12T02:41:03.523Z,14.00
2022-12-12T02:41:42.866Z,12.68
2022-12-12T02:42:42.402Z,11.85
2022-12-12T02:43:26.679Z,12.43
2022-12-12T02:44:04.363Z,11.25
2022-12-12T02:44:53.534Z,12.37
2022-12-12T02:45:34.007Z,12.68
2022-12-12T02:46:24.287Z,11.77
2022-12-12T02:46:56.151Z,12.13
2022-12-12T02:47:36.067Z,11.35
2022-12-12T02:48:46.758Z,10.95
2022-12-12T02:49:28.493Z,11.75
2022-12-12T02:50:11.254Z,9.95
2022-12-12T02:50:47.510Z,10.35
2022-12-12T02:51:20.134Z,11.55
2022-12-12T02:51:53.820Z,12.15
2022-12-12T02:52:26.027Z,12.05
2022-12-12T02:53:00.004Z,11.40
2022-12-12T02:53:31.938Z,14.15
2022-12-12T02:54:05.822Z,10.50
2022-12-12T02:54:38.215Z,13.10
2022-12-12T02:55:10.363Z,12.90
2022-12-12T02:55:42.293Z,11.93
2022-12-12T02:56:45.172Z,8.10
2022-12-12T02:57:22.354Z,11.07
2022-12-12T02:57:55.354Z,11.05
2022-12-12T02:58:27.333Z,9.32
2022-12-12T02:58:59.161Z,10.27
2022-12-12T02:59:41.392Z,10.02
2022-12-12T03:00:17.183Z,8.48
2022-12-12T03:01:12.950Z,9.60
2022-12-12T03:01:44.837Z,9.35
2022-12-12T03:02:44.734Z,9.13
2022-12-12T03:03:57.378Z,10.65
2022-12-12T03:05:08.130Z,10.68
2022-12-12T03:06:01.742Z,10.80
2022-12-12T03:06:55.146Z,8.25
2022-12-12T03:07:48.392Z,11.07
2022-12-12T03:08:45.382Z,9.88
2022-12-12T03:09:35.766Z,9.63
2022-12-12T03:10:45.045Z,9.43
2022-12-12T03:11:35.059Z,10.23
2022-12-12T03:12:24.980Z,8.10
2022-12-12T03:13:14.119Z,8.38
2022-12-12T03:14:05.095Z,9.93
2022-12-12T03:15:44.817Z,9.38
2022-12-12T03:16:26.366Z,12.63
2022-12-12T03:17:04.291Z,11.50
2022-12-12T03:18:11.235Z,11.05
2022-12-12T03:19:01.045Z,12.88
2022-12-12T03:19:41.666Z,11.38
2022-12-12T03:20:22.478Z,10.73
2022-12-12T03:21:42.357Z,16.35
2022-12-12T03:22:37.759Z,16.05
2022-12-12T03:23:15.618Z,27.67
2022-12-12T03:23:54.550Z,43.42
2022-12-12T03:24:37.280Z,41.67
2022-12-12T03:25:21.135Z,31.65
2022-12-12T03:26:35.762Z,20.75
2022-12-12T03:27:29.378Z,15.85
2022-12-12T03:28:13.852Z,16.85
2022-12-12T03:28:51.546Z,16.65
2022-12-12T03:29:32.721Z,15.18
2022-12-12T03:30:11.546Z,14.52
2022-12-12T03:30:48.770Z,16.05
2022-12-12T03:31:25.463Z,14.68
2022-12-12T03:32:04.458Z,16.12
2022-12-12T03:33:00.132Z,14.20
2022-12-12T03:33:50.436Z,15.65
2022-12-12T03:34:29.670Z,14.82
2022-12-12T03:35:15.697Z,17.08
2022-12-12T03:36:04.762Z,14.87
2022-12-12T03:36:46.204Z,17.65
2022-12-12T03:37:27.321Z,15.30
2022-12-12T03:38:23.143Z,20.77
2022-12-12T03:39:07.374Z,20.12
2022-12-12T03:39:46.788Z,19.60
2022-12-12T03:40:29.840Z,17.95
2022-12-12T03:41:09.005Z,19.23
2022-12-12T03:41:51.988Z,16.30
2022-12-12T03:42:30.627Z,18.80
2022-12-12T03:43:16.572Z,19.25
2022-12-12T03:44:17.053Z,18.27
2022-12-12T03:44:57.193Z,17.45
2022-12-12T03:45:42.245Z,17.20
2022-12-12T03:46:19.875Z,17.42
2022-12-12T03:47:02.208Z,16.40
2022-12-12T03:47:42.470Z,17.87
2022-12-12T03:48:30.702Z,16.77
2022-12-12T03:49:02.525Z,19.77
2022-12-12T03:50:00.510Z,21.45
2022-12-12T03:50:48.951Z,26.85
2022-12-12T03:51:28.319Z,24.83
2022-12-12T03:52:10.249Z,26.67
2022-12-12T03:53:10.048Z,26.25
2022-12-12T03:53:51.984Z,30.83
2022-12-12T03:54:54.108Z,21.55
2022-12-12T03:55:56.935Z,15.48
2022-12-12T03:56:38.072Z,18.62
2022-12-12T03:58:14.358Z,30.20
2022-12-12T03:59:16.372Z,22.62
2022-12-12T03:59:54.964Z,24.37
2022-12-12T04:00:29.654Z,18.58
2022-12-12T04:01:07.894Z,16.65
2022-12-12T04:01:48.323Z,16.50
2022-12-12T04:02:30.779Z,18.73
2022-12-12T04:03:29.788Z,19.65
2022-12-12T04:04:41.706Z,20.80
2022-12-12T04:05:28.604Z,22.50
2022-12-12T04:06:27.536Z,19.92
2022-12-12T04:07:23.919Z,19.50
2022-12-12T04:08:06.220Z,20.10
2022-12-12T04:08:39.368Z,21.35
2022-12-12T04:09:32.869Z,21.62
2022-12-12T04:10:25.276Z,19.77
2022-12-12T04:11:26.438Z,22.92
2022-12-12T04:12:27.755Z,25.92
2022-12-12T04:14:22.386Z,38.60
2022-12-12T04:15:15.369Z,41.78
2022-12-12T04:15:59.586Z,26.37
2022-12-12T04:16:37.274Z,36.88
2022-12-12T04:17:13.222Z,46.33
2022-12-12T04:18:13.305Z,35.80
2022-12-12T04:18:57.383Z,34.45
2022-12-12T04:19:50.963Z,38.25
2022-12-12T04:20:51.301Z,44.15
2022-12-12T04:22:04.791Z,41.00
2022-12-12T04:23:04.930Z,32.15
2022-12-12T04:23:39.721Z,24.87
2022-12-12T04:24:23.879Z,26.75
2022-12-12T04:25:05.047Z,31.70
2022-12-12T04:26:16.665Z,28.90
2022-12-12T04:27:27.792Z,30.02
2022-12-12T04:28:04.359Z,34.38
2022-12-12T04:28:41.438Z,29.92
2022-12-12T04:29:19.727Z,27.23
2022-12-12T04:30:08.428Z,25.58
2022-12-12T04:30:41.389Z,34.33
2022-12-12T04:31:13.975Z,39.38
2022-12-12T04:32:12.953Z,33.05
2022-12-12T04:32:45.019Z,30.58
2022-12-12T04:33:20.975Z,23.73
2022-12-12T04:34:01.112Z,25.37
2022-12-12T04:34:57.828Z,28.25
2022-12-12T04:35:44.108Z,28.20
2022-12-12T04:36:18.632Z,26.05
2022-12-12T04:36:51.430Z,22.40
2022-12-12T04:37:27.859Z,22.98
2022-12-12T04:38:13.265Z,26.05
2022-12-12T04:38:48.733Z,25.77
2022-12-12T04:39:21.836Z,35.20
2022-12-12T04:39:58.603Z,28.83
2022-12-12T04:40:34.284Z,28.70
2022-12-12T04:41:10.410Z,31.17
2022-12-12T04:41:45.441Z,31.33
2022-12-12T04:42:22.649Z,29.05
2022-12-12T04:43:03.729Z,35.45
2022-12-12T04:43:38.567Z,32.85
2022-12-12T04:44:12.623Z,29.48
2022-12-12T04:44:46.542Z,29.25
2022-12-12T04:45:22.083Z,24.23
2022-12-12T04:45:57.487Z,26.77
2022-12-12T04:46:33.257Z,23.42
2022-12-12T04:47:06.770Z,23.60
2022-12-12T04:47:40.426Z,25.70
2022-12-12T04:48:17.628Z,28.15
2022-12-12T04:48:57.386Z,28.80
2022-12-12T04:49:32.135Z,23.10
2022-12-12T04:50:07.481Z,24.70
2022-12-12T04:50:40.280Z,22.92
2022-12-12T04:51:16.916Z,23.67
2022-12-12T04:51:55.842Z,30.12
2022-12-12T04:52:31.448Z,39.47
2022-12-12T04:53:14.951Z,38.70
2022-12-12T04:54:14.254Z,34.60
2022-12-12T04:55:01.804Z,30.48
2022-12-12T04:55:37.117Z,30.98
2022-12-12T04:56:13.778Z,36.25
2022-12-12T04:56:51.743Z,29.60
2022-12-12T04:57:33.979Z,28.55
2022-12-12T04:58:07.325Z,27.80
2022-12-12T04:58:40.409Z,33.10
2022-12-12T04:59:12.822Z,30.20
2022-12-12T04:59:45.388Z,26.83
2022-12-12T05:00:17.734Z,24.92
2022-12-12T05:00:58.180Z,33.25
2022-12-12T05:01:53.044Z,32.45
2022-12-12T05:02:39.948Z,45.97
2022-12-12T05:03:44.072Z,43.17
2022-12-12T05:04:35.935Z,37.70
2022-12-12T05:05:18.403Z,36.40
2022-12-12T05:06:19.776Z,34.63
2022-12-12T05:07:39.231Z,51.03
2022-12-12T05:08:24.019Z,60.60
2022-12-12T05:08:58.183Z,53.50
2022-12-12T05:09:30.304Z,50.35
2022-12-12T05:10:02.406Z,48.78
2022-12-12T05:10:34.631Z,48.05
2022-12-12T05:11:07.160Z,40.65
2022-12-12T05:11:39.122Z,27.48
2022-12-12T05:12:11.403Z,27.58
2022-12-12T05:12:47.257Z,27.87
2022-12-12T05:13:30.353Z,30.85
2022-12-12T05:14:02.228Z,41.55
2022-12-12T05:14:34.226Z,39.03
2022-12-12T05:15:06.880Z,27.05
2022-12-12T05:15:43.369Z,30.70
2022-12-12T05:16:32.584Z,33.28
2022-12-12T05:17:08.803Z,29.15
2022-12-12T05:17:45.911Z,29.83
2022-12-12T05:18:17.849Z,29.20
2022-12-12T05:18:49.736Z,31.17
2022-12-12T05:19:21.690Z,26.77
2022-12-12T05:19:53.567Z,25.50
2022-12-12T05:20:25.511Z,29.70
2022-12-12T05:20:57.381Z,27.08
2022-12-12T05:21:29.237Z,27.62
2022-12-12T05:22:01.168Z,31.37
2022-12-12T05:22:33.443Z,30.15
2022-12-12T05:23:05.845Z,26.80
2022-12-12T05:23:37.707Z,30.88
2022-12-12T05:24:09.527Z,27.33
2022-12-12T05:24:41.423Z,26.58
2022-12-12T05:25:13.979Z,26.05
2022-12-12T05:25:46.160Z,27.58
2022-12-12T05:26:23.519Z,33.13
2022-12-12T05:26:55.376Z,30.60
2022-12-12T05:27:27.545Z,30.85
2022-12-12T05:27:59.524Z,39.17
2022-12-12T05:28:31.690Z,33.15
2022-12-12T05:29:07.548Z,32.13
2022-12-12T05:29:39.712Z,30.58
2022-12-12T05:30:12.106Z,31.37
2022-12-12T05:30:43.936Z,33.55
2022-12-12T05:31:16.279Z,30.40
2022-12-12T05:31:48.166Z,40.38
2022-12-12T05:32:21.363Z,45.28
2022-12-12T05:32:53.204Z,37.28
2022-12-12T05:33:25.059Z,24.45
2022-12-12T05:33:57.278Z,25.70
2022-12-12T05:34:29.217Z,25.30
2022-12-12T05:35:01.066Z,26.77
2022-12-12T05:35:33.997Z,27.67
2022-12-12T05:36:06.111Z,24.33
2022-12-12T05:36:38.669Z,34.20
2022-12-12T05:37:10.622Z,32.95
2022-12-12T05:37:45.499Z,29.50
2022-12-12T05:38:21.681Z,33.13
2022-12-12T05:38:53.529Z,34.50
2022-12-12T05:39:25.652Z,35.25
2022-12-12T05:39:57.548Z,32.35
2022-12-12T05:40:29.522Z,42.00
2022-12-12T05:41:01.498Z,48.75
2022-12-12T05:41:33.355Z,41.30
2022-12-12T05:42:05.324Z,40.72
2022-12-12T05:42:37.167Z,34.90
2022-12-12T05:43:09.341Z,32.17
2022-12-12T05:43:41.213Z,29.67
2022-12-12T05:44:13.087Z,42.35
2022-12-12T05:44:45.232Z,32.13
2022-12-12T05:45:17.057Z,32.10
2022-12-12T05:45:49.107Z,26.75
2022-12-12T05:46:21.056Z,24.60
2022-12-12T05:46:52.981Z,29.95
2022-12-12T05:47:24.968Z,25.92
2022-12-12T05:47:57.855Z,20.02
2022-12-12T05:48:29.771Z,26.98
2022-12-12T05:49:01.725Z,26.55
2022-12-12T05:49:33.571Z,21.23
2022-12-12T05:50:06.755Z,21.15
2022-12-12T05:50:38.638Z,25.52
2022-12-12T05:51:10.726Z,25.92
2022-12-12T05:51:42.687Z,28.02
2022-12-12T05:52:14.506Z,26.50
2022-12-12T05:52:46.482Z,21.90
2022-12-12T05:53:18.472Z,19.50
2022-12-12T05:53:50.277Z,27.20
2022-12-12T05:54:22.291Z,21.27
2022-12-12T05:54:54.323Z,28.98
2022-12-12T05:55:26.505Z,30.98
2022-12-12T05:55:58.429Z,42.92
2022-12-12T05:56:30.246Z,40.58
2022-12-12T05:57:02.173Z,38.42
2022-12-12T05:57:34.205Z,31.23
2022-12-12T05:58:06.046Z,23.20
2022-12-12T05:58:38.187Z,23.77
2022-12-12T05:59:10.113Z,23.10
2022-12-12T05:59:41.921Z,23.00
2022-12-12T06:00:14.172Z,21.45
2022-12-12T06:00:51.616Z,23.05
2022-12-12T06:01:23.671Z,27.55
2022-12-12T06:01:55.578Z,26.40
2022-12-12T06:02:27.474Z,29.40
2022-12-12T06:02:59.348Z,29.75
2022-12-12T06:03:32.532Z,29.37
2022-12-12T06:04:04.605Z,25.85
2022-12-12T06:04:36.493Z,23.55
2022-12-12T06:05:08.775Z,24.50
2022-12-12T06:05:40.785Z,21.37
2022-12-12T06:06:12.899Z,23.62
2022-12-12T06:06:44.770Z,24.15
2022-12-12T06:07:16.610Z,21.20
2022-12-12T06:07:48.511Z,22.70
2022-12-12T06:08:24.859Z,23.70
2022-12-12T06:08:57.075Z,26.58
2022-12-12T06:09:28.964Z,20.88
2022-12-12T06:10:00.824Z,24.92
2022-12-12T06:10:32.632Z,27.90
2022-12-12T06:11:06.509Z,31.00
2022-12-12T06:11:38.666Z,40.15
2022-12-12T06:12:10.560Z,35.20
2022-12-12T06:12:42.485Z,24.90
2022-12-12T06:13:14.523Z,27.45
2022-12-12T06:13:46.519Z,25.48
2022-12-12T06:14:18.340Z,24.90
2022-12-12T06:14:50.240Z,28.77
2022-12-12T06:15:22.270Z,28.40
2022-12-12T06:15:54.124Z,24.45
2022-12-12T06:16:26.005Z,30.50
2022-12-12T06:16:58.139Z,25.92
2022-12-12T06:17:33.341Z,32.20
2022-12-12T06:18:05.718Z,47.40
2022-12-12T06:18:37.904Z,44.17
2022-12-12T06:19:09.724Z,35.75
2022-12-12T06:19:42.292Z,34.75
2022-12-12T06:20:14.270Z,38.25
2022-12-12T06:20:46.172Z,46.10
2022-12-12T06:21:18.097Z,57.08
2022-12-12T06:21:50.017Z,55.60
2022-12-12T06:22:22.155Z,48.67
2022-12-12T06:22:54.180Z,58.40
2022-12-12T06:23:26.095Z,46.37
2022-12-12T06:23:58.024Z,43.75
2022-12-12T06:24:29.974Z,44.38
2022-12-12T06:25:02.275Z,43.15
2022-12-12T06:25:34.362Z,42.70
2022-12-12T06:26:08.968Z,47.10
2022-12-12T06:26:40.823Z,46.45
2022-12-12T06:27:12.796Z,43.05
2022-12-12T06:27:44.961Z,36.95
2022-12-12T06:28:16.819Z,31.95
2022-12-12T06:28:49.213Z,27.92
2022-12-12T06:29:21.128Z,21.02
2022-12-12T06:29:52.964Z,25.37
2022-12-12T06:30:24.896Z,23.90
2022-12-12T06:30:57.112Z,27.05
2022-12-12T06:31:29.026Z,24.98
2022-12-12T06:32:00.909Z,21.67
2022-12-12T06:32:32.755Z,20.90
2022-12-12T06:33:04.867Z,19.52
2022-12-12T06:33:36.892Z,20.85
2022-12-12T06:34:08.728Z,21.52
2022-12-12T06:34:40.645Z,22.50
2022-12-12T06:35:12.738Z,26.20
2022-12-12T06:35:44.803Z,24.90
2022-12-12T06:36:23.977Z,27.33
2022-12-12T06:36:55.896Z,34.22
2022-12-12T06:37:27.831Z,44.97
2022-12-12T06:37:59.639Z,44.05
2022-12-12T06:38:32.384Z,38.72
2022-12-12T06:39:04.586Z,33.92
2022-12-12T06:39:37.228Z,31.83
2022-12-12T06:40:09.770Z,31.02
2022-12-12T06:40:41.630Z,37.38
2022-12-12T06:41:15.203Z,29.00
2022-12-12T06:41:47.081Z,28.35
2022-12-12T06:42:18.942Z,30.25
2022-12-12T06:42:50.799Z,32.55
2022-12-12T06:43:23.109Z,28.52
2022-12-12T06:43:55.670Z,28.30
2022-12-12T06:44:27.521Z,25.20
2022-12-12T06:44:59.379Z,31.85
2022-12-12T06:45:31.270Z,26.87
2022-12-12T06:46:05.285Z,24.63
2022-12-12T06:46:37.342Z,26.05
2022-12-12T06:47:09.339Z,23.17
2022-12-12T06:47:41.273Z,22.95
2022-12-12T06:48:13.316Z,26.20
2022-12-12T06:48:45.580Z,31.75
2022-12-12T06:49:17.874Z,27.15
2022-12-12T06:49:49.831Z,24.50
2022-12-12T06:50:23.804Z,24.23
2022-12-12T06:50:55.919Z,20.58
2022-12-12T06:51:36.438Z,23.42
2022-12-12T06:52:08.346Z,21.65
2022-12-12T06:52:40.197Z,22.02
2022-12-12T06:53:12.786Z,22.25
2022-12-12T06:53:45.189Z,18.10
2022-12-12T06:54:18.930Z,20.05
2022-12-12T06:54:50.814Z,23.58
2022-12-12T06:55:22.720Z,23.08
2022-12-12T06:55:54.689Z,21.80
2022-12-12T06:56:59.517Z,29.10
2022-12-12T06:57:31.461Z,31.70
2022-12-12T06:58:03.362Z,30.70
2022-12-12T06:58:35.569Z,28.70
2022-12-12T06:59:07.422Z,31.73
2022-12-12T06:59:39.562Z,26.80
2022-12-12T07:00:11.930Z,32.35
2022-12-12T07:00:44.058Z,29.33
2022-12-12T07:01:21.837Z,31.35
2022-12-12T07:01:56.338Z,26.67
2022-12-12T07:02:30.251Z,25.98
2022-12-12T07:03:02.543Z,36.13
2022-12-12T07:03:34.849Z,46.45
2022-12-12T07:04:06.901Z,46.25
2022-12-12T07:04:39.150Z,45.12
2022-12-12T07:05:11.208Z,40.08
2022-12-12T07:05:44.963Z,41.35
2022-12-12T07:06:18.001Z,27.90
2022-12-12T07:06:49.912Z,24.98
2022-12-12T07:07:21.752Z,28.80
2022-12-12T07:07:53.719Z,27.42
2022-12-12T07:08:26.480Z,26.85
2022-12-12T07:09:00.322Z,25.88
2022-12-12T07:09:32.172Z,25.88
2022-12-12T07:10:05.103Z,24.83
2022-12-12T07:10:42.437Z,24.05
2022-12-12T07:11:20.166Z,21.17
2022-12-12T07:11:51.995Z,21.08
2022-12-12T07:12:23.891Z,20.25
2022-12-12T07:12:57.612Z,20.85
2022-12-12T07:13:29.576Z,23.40
2022-12-12T07:14:03.723Z,21.90
2022-12-12T07:14:38.920Z,20.73
2022-12-12T07:15:12.386Z,23.58
2022-12-12T07:15:46.710Z,20.98
2022-12-12T07:16:19.079Z,19.23
2022-12-12T07:16:50.960Z,20.30
2022-12-12T07:17:22.879Z,23.80
2022-12-12T07:17:54.905Z,21.55
2022-12-12T07:18:27.651Z,21.67
2022-12-12T07:18:59.594Z,21.17
2022-12-12T07:19:31.500Z,23.58
2022-12-12T07:20:04.242Z,20.27
2022-12-12T07:20:40.358Z,26.02
2022-12-12T07:21:15.461Z,22.15
2022-12-12T07:21:47.317Z,25.08
2022-12-12T07:22:19.195Z,20.20
2022-12-12T07:22:51.023Z,27.13
2022-12-12T07:23:23.009Z,26.90
2022-12-12T07:23:56.955Z,29.33
2022-12-12T07:24:28.789Z,20.67
2022-12-12T07:25:00.633Z,24.90
2022-12-12T07:25:32.513Z,25.10
2022-12-12T07:26:10.070Z,29.08
2022-12-12T07:26:41.944Z,25.58
2022-12-12T07:27:19.966Z,21.90
2022-12-12T07:27:53.645Z,23.67
2022-12-12T07:28:25.555Z,34.00
2022-12-12T07:28:57.402Z,29.23
2022-12-12T07:29:29.317Z,24.63
2022-12-12T07:30:01.196Z,24.50
2022-12-12T07:30:33.594Z,21.42
2022-12-12T07:31:11.931Z,40.60
2022-12-12T07:31:43.783Z,55.17
2022-12-12T07:32:15.653Z,46.30
2022-12-12T07:32:47.516Z,51.47
2022-12-12T07:33:20.095Z,49.13
2022-12-12T07:33:52.777Z,72.95
2022-12-12T07:34:24.721Z,101.05
2022-12-12T07:34:56.764Z,103.22
2022-12-12T07:35:28.603Z,88.60
2022-12-12T07:36:01.563Z,91.45
2022-12-12T07:36:33.757Z,90.68
2022-12-12T07:37:05.615Z,78.78
2022-12-12T07:37:37.546Z,85.05
2022-12-12T07:38:11.254Z,100.47
2022-12-12T07:38:44.114Z,72.28
2022-12-12T07:39:20.703Z,67.70
2022-12-12T07:39:53.122Z,70.95
2022-12-12T07:40:25.005Z,64.70
2022-12-12T07:41:02.968Z,48.22
2022-12-12T07:41:35.143Z,47.97
2022-12-12T07:42:06.987Z,51.60
2022-12-12T07:42:39.638Z,55.90
2022-12-12T07:43:11.576Z,66.40
2022-12-12T07:43:45.817Z,55.85
2022-12-12T07:44:17.686Z,47.25
2022-12-12T07:44:50.584Z,31.08
2022-12-12T07:45:22.587Z,58.45
2022-12-12T07:45:54.599Z,53.53
2022-12-12T07:46:26.665Z,60.30
2022-12-12T07:46:59.332Z,49.50
2022-12-12T07:47:31.354Z,37.45
2022-12-12T07:48:03.307Z,39.90
2022-12-12T07:48:35.305Z,42.45
2022-12-12T07:49:07.146Z,44.05
2022-12-12T07:49:39.027Z,57.83
2022-12-12T07:50:11.782Z,42.38
2022-12-12T07:50:43.661Z,35.88
2022-12-12T07:51:16.091Z,29.12
2022-12-12T07:51:49.400Z,26.15
2022-12-12T07:52:21.949Z,28.23
2022-12-12T07:52:53.784Z,25.25
2022-12-12T07:53:25.644Z,23.15
2022-12-12T07:53:57.462Z,19.83
2022-12-12T07:54:29.463Z,18.90
2022-12-12T07:55:02.560Z,19.83